Time;durP1;ratioP1;P1;durP2;ratioP2;P2;SDS_P1;SDS_P2;PMS_P1;PMS_P2;Temp;Humidity;BMP_temperature;BMP_pressure;BME280_temperature;BME280_humidity;BME280_pressure;Samples;Min_cycle;Max_cycle;Signal;HPM_P1;HPM_P2
2021/12/24 00:00:13;;;;;;;2.42;1.95;;;;;;;5.05;100.00;92490.88;2073937;28;20030;-88
2021/12/24 00:01:22;;;;;;;2.85;2.00;;;;;;;4.85;100.00;92503.19;2065978;28;20022;-88
2021/12/24 00:02:24;;;;;;;5.53;2.10;;;;;;;4.72;100.00;92484.41;2067992;28;20018;-86
2021/12/24 00:03:26;;;;;;;5.50;2.15;;;;;;;4.65;100.00;92481.81;2080776;28;20120;-86
2021/12/24 00:04:33;;;;;;;2.97;2.08;;;;;;;4.61;100.00;92485.66;2073872;28;20036;-88
2021/12/24 00:05:35;;;;;;;2.28;1.95;;;;;;;4.60;100.00;92482.25;2067459;28;20395;-86
2021/12/24 00:06:36;;;;;;;6.38;2.05;;;;;;;4.58;100.00;92481.16;2065974;28;20023;-88
2021/12/24 00:07:37;;;;;;;2.08;1.73;;;;;;;4.83;100.00;92488.84;2065655;28;20029;-87
2021/12/24 00:08:40;;;;;;;4.82;2.28;;;;;;;4.80;100.00;92487.75;2078217;28;20079;-88
2021/12/24 00:09:41;;;;;;;4.15;2.03;;;;;;;4.71;100.00;92487.47;2074122;28;20030;-87
2021/12/24 00:10:48;;;;;;;3.33;1.65;;;;;;;4.75;100.00;92477.59;2073962;28;20033;-90
2021/12/24 00:11:51;;;;;;;2.60;2.10;;;;;;;4.67;100.00;92481.44;2075545;28;20022;-86
2021/12/24 00:13:00;;;;;;;4.18;1.75;;;;;;;4.66;100.00;92472.75;2073984;28;20061;-86
2021/12/24 00:14:04;;;;;;;5.25;1.95;;;;;;;4.54;100.00;92483.84;2076145;28;20578;-87
2021/12/24 00:15:21;;;;;;;5.43;2.15;;;;;;;4.52;100.00;92481.59;2073773;28;20038;-87
2021/12/24 00:16:27;;;;;;;4.50;1.80;;;;;;;4.61;100.00;92470.53;2062120;28;20419;-88
2021/12/24 00:17:29;;;;;;;2.20;1.98;;;;;;;4.53;100.00;92471.75;2065712;28;20035;-86
2021/12/24 00:18:46;;;;;;;5.68;2.00;;;;;;;4.55;100.00;92470.19;2066011;28;20035;-86
2021/12/24 00:20:04;;;;;;;2.95;1.90;;;;;;;4.64;100.00;92469.00;2061389;28;20034;-88
2021/12/24 00:36:31;;;;;;;2.47;1.90;;;;;;;4.73;100.00;92463.97;2082935;28;20029;-86
2021/12/24 00:37:32;;;;;;;4.70;2.33;;;;;;;4.74;100.00;92473.41;2073635;28;20025;-88
2021/12/24 00:38:32;;;;;;;1.90;1.20;;;;;;;4.83;100.00;92468.44;2073336;28;20452;-87
2021/12/24 00:39:39;;;;;;;2.83;1.80;;;;;;;4.91;100.00;92464.53;2073616;28;20034;-85
2021/12/24 00:40:44;;;;;;;3.65;1.90;;;;;;;4.77;100.00;92467.34;2074319;28;20116;-87
2021/12/24 00:41:45;;;;;;;2.85;1.95;;;;;;;4.71;100.00;92461.72;2066804;28;20488;-86
2021/12/24 00:42:51;;;;;;;3.40;1.77;;;;;;;4.69;100.00;92455.31;2065538;28;20026;-88
2021/12/24 00:43:53;;;;;;;3.60;1.90;;;;;;;4.67;100.00;92455.72;2073972;28;20025;-86
2021/12/24 00:45:16;;;;;;;2.90;2.00;;;;;;;4.69;100.00;92448.13;2065873;28;20118;-88
2021/12/24 00:46:22;;;;;;;3.50;1.90;;;;;;;4.74;100.00;92441.66;2071598;28;20049;-89
2021/12/24 00:47:24;;;;;;;6.30;2.50;;;;;;;4.93;100.00;92438.41;2074128;28;20029;-88
2021/12/24 00:48:25;;;;;;;2.33;1.70;;;;;;;4.94;100.00;92434.63;2073632;28;20025;-87
2021/12/24 00:49:26;;;;;;;2.97;1.92;;;;;;;4.75;100.00;92422.75;2081631;28;20113;-87
2021/12/24 00:50:31;;;;;;;1.85;1.40;;;;;;;4.59;100.00;92421.78;2073478;28;20022;-88
2021/12/24 00:51:55;;;;;;;3.28;2.00;;;;;;;4.44;100.00;92424.59;2066629;28;20105;-86
2021/12/24 00:53:04;;;;;;;3.10;1.80;;;;;;;4.63;100.00;92411.91;2078755;28;20503;-87
2021/12/24 00:55:34;;;;;;;2.80;2.00;;;;;;;4.63;100.00;92417.94;2089241;28;20021;-86
2021/12/24 00:56:35;;;;;;;2.75;1.77;;;;;;;4.66;100.00;92419.06;2081695;28;20112;-85
2021/12/24 00:57:42;;;;;;;3.10;1.70;;;;;;;4.91;100.00;92424.81;2073449;28;20049;-88
2021/12/24 00:58:43;;;;;;;2.85;1.65;;;;;;;4.80;100.00;92430.25;2074349;28;20108;-88
2021/12/24 00:59:44;;;;;;;2.50;1.63;;;;;;;4.71;100.00;92426.56;2065282;28;20610;-88
2021/12/24 01:00:47;;;;;;;2.42;2.17;;;;;;;4.60;100.00;92429.31;2065361;28;20018;-86
2021/12/24 01:01:48;;;;;;;2.72;1.73;;;;;;;4.50;100.00;92435.47;2081465;28;20132;-88
2021/12/24 01:02:51;;;;;;;5.75;2.10;;;;;;;4.50;100.00;92443.41;2081681;28;20490;-87
2021/12/24 01:03:52;;;;;;;5.53;1.95;;;;;;;4.42;100.00;92445.38;2073585;28;20117;-87
2021/12/24 01:04:53;;;;;;;3.03;1.83;;;;;;;4.33;100.00;92441.69;2071355;28;20398;-86
2021/12/24 01:06:03;;;;;;;4.78;3.28;;;;;;;4.23;100.00;92443.31;2073544;28;20141;-87
2021/12/24 01:07:04;;;;;;;3.60;2.35;;;;;;;4.09;100.00;92438.88;2082657;28;20537;-88
2021/12/24 01:08:06;;;;;;;2.38;1.92;;;;;;;4.01;100.00;92432.91;2073491;28;20041;-86
2021/12/24 01:09:07;;;;;;;3.05;2.13;;;;;;;3.96;100.00;92432.56;2073585;28;20061;-88
2021/12/24 01:10:09;;;;;;;2.28;2.00;;;;;;;4.11;100.00;92441.88;2065221;28;20064;-86
2021/12/24 01:11:10;;;;;;;3.22;1.92;;;;;;;4.06;100.00;92438.91;2077914;28;20033;-87
2021/12/24 01:12:11;;;;;;;3.97;2.45;;;;;;;4.11;100.00;92438.47;2065333;28;20022;-86
2021/12/24 01:13:12;;;;;;;3.58;2.40;;;;;;;4.06;100.00;92434.38;2065485;28;20018;-87
2021/12/24 01:14:13;;;;;;;3.17;2.50;;;;;;;3.96;100.00;92428.03;2065411;28;20026;-86
2021/12/24 01:15:15;;;;;;;2.70;2.30;;;;;;;3.87;100.00;92430.38;2065270;28;20105;-89
2021/12/24 01:16:30;;;;;;;4.15;2.53;;;;;;;3.83;100.00;92437.56;2073593;28;20489;-87
2021/12/24 01:23:59;;;;;;;8.02;2.28;;;;;;;3.56;100.00;92436.63;2064856;28;20376;-87
2021/12/24 01:26:09;;;;;;;3.85;1.95;;;;;;;3.37;100.00;92440.50;2084705;28;20033;-87
2021/12/24 01:27:34;;;;;;;4.93;2.45;;;;;;;3.31;100.00;92434.91;2081597;28;20051;-86
2021/12/24 01:28:46;;;;;;;3.55;2.70;;;;;;;3.18;100.00;92436.47;2079703;28;20021;-88
2021/12/24 01:39:01;;;;;;;4.28;2.90;;;;;;;3.01;100.00;92425.59;2081260;28;20037;-87
2021/12/24 01:41:18;;;;;;;2.63;2.15;;;;;;;3.18;100.00;92429.31;2076283;28;20025;-90
2021/12/24 01:43:41;;;;;;;3.15;2.30;;;;;;;3.20;100.00;92428.91;2078753;28;20480;-87
2021/12/24 01:44:42;;;;;;;4.68;2.65;;;;;;;3.39;100.00;92423.16;2073188;28;20089;-88
2021/12/24 01:45:48;;;;;;;2.97;2.30;;;;;;;3.50;100.00;92421.19;2056911;28;20030;-87
2021/12/24 01:46:50;;;;;;;4.15;2.55;;;;;;;3.59;100.00;92441.88;2066273;28;20027;-86
2021/12/24 01:47:53;;;;;;;3.85;2.30;;;;;;;3.65;100.00;92424.50;2065081;28;20093;-87
2021/12/24 01:48:54;;;;;;;3.67;2.28;;;;;;;3.74;100.00;92434.63;2065675;28;20085;-88
2021/12/24 01:49:55;;;;;;;4.38;2.30;;;;;;;3.70;100.00;92426.72;2083751;28;20045;-87
2021/12/24 01:50:56;;;;;;;4.25;2.85;;;;;;;3.74;100.00;92424.06;2072893;28;20030;-85
2021/12/24 01:51:58;;;;;;;4.82;2.80;;;;;;;3.70;100.00;92424.06;2081376;28;20052;-86
2021/12/24 01:53:01;;;;;;;5.47;2.97;;;;;;;3.88;100.00;92413.38;2081140;28;20029;-87
2021/12/24 01:54:02;;;;;;;6.15;2.63;;;;;;;3.93;100.00;92422.78;2081674;28;20028;-88
2021/12/24 01:55:03;;;;;;;5.32;2.80;;;;;;;4.00;100.00;92418.19;2073120;28;20037;-85
2021/12/24 01:56:05;;;;;;;4.38;2.35;;;;;;;4.30;100.00;92416.75;2065114;28;20862;-88
2021/12/24 01:57:05;;;;;;;4.22;2.78;;;;;;;4.46;100.00;92411.69;2064941;28;20646;-88
2021/12/24 01:58:08;;;;;;;5.38;2.65;;;;;;;4.29;100.00;92408.06;2081273;28;20155;-88
2021/12/24 01:59:10;;;;;;;2.30;2.10;;;;;;;4.33;100.00;92415.25;2073130;28;20125;-88
2021/12/24 02:00:24;;;;;;;3.20;2.25;;;;;;;4.34;100.00;92414.84;2057345;28;20027;-87
2021/12/24 02:01:27;;;;;;;6.68;2.65;;;;;;;4.49;100.00;92413.56;2070417;28;20495;-87
2021/12/24 02:02:28;;;;;;;4.75;2.72;;;;;;;4.41;100.00;92406.84;2073172;28;20030;-87
2021/12/24 02:03:29;;;;;;;3.15;2.50;;;;;;;4.40;100.00;92405.34;2072869;28;20112;-86
2021/12/24 02:04:30;;;;;;;3.13;2.55;;;;;;;4.58;100.00;92410.44;2073107;28;20490;-88
2021/12/24 02:05:31;;;;;;;2.80;2.40;;;;;;;4.58;100.00;92407.81;2073135;28;20117;-87
2021/12/24 02:06:33;;;;;;;4.30;2.55;;;;;;;4.74;100.00;92407.22;2072967;28;20022;-86
2021/12/24 02:07:36;;;;;;;3.22;2.45;;;;;;;4.63;100.00;92410.00;2080449;28;20479;-87
2021/12/24 02:09:45;;;;;;;;;;;;;;;4.49;100.00;92412.81;2148627;27;20114;-84
2021/12/24 02:10:46;;;;;;;2.53;2.33;;;;;;;4.45;100.00;92420.78;2138797;27;19922;-86
2021/12/24 02:11:47;;;;;;;4.55;2.63;;;;;;;4.44;100.00;92424.59;2121447;27;20019;-86
2021/12/24 02:12:49;;;;;;;2.75;2.45;;;;;;;4.32;100.00;92422.44;2121761;27;20066;-85
2021/12/24 02:13:51;;;;;;;4.13;2.60;;;;;;;4.21;100.00;92419.13;2113274;27;20020;-85
2021/12/24 02:14:56;;;;;;;3.58;2.63;;;;;;;4.13;100.00;92412.41;2113572;27;20016;-85
2021/12/24 02:28:43;;;;;;;3.75;3.03;;;;;;;5.01;100.00;92409.97;2103968;28;20534;-87
2021/12/24 02:29:48;;;;;;;2.55;2.15;;;;;;;4.77;100.00;92393.97;2095429;28;20033;-85
2021/12/24 02:30:55;;;;;;;2.47;2.10;;;;;;;4.63;100.00;92399.44;2100233;27;20025;-86
2021/12/24 02:31:59;;;;;;;5.38;2.63;;;;;;;4.54;100.00;92393.84;2113022;28;20058;-85
2021/12/24 02:33:05;;;;;;;4.00;2.30;;;;;;;4.58;100.00;92388.53;2119604;28;20082;-87
2021/12/24 02:34:06;;;;;;;2.83;2.30;;;;;;;4.50;100.00;92395.78;2113382;27;20027;-87
2021/12/24 02:35:11;;;;;;;3.28;2.28;;;;;;;4.41;100.00;92390.22;2108229;28;20505;-86
2021/12/24 02:36:12;;;;;;;4.07;2.40;;;;;;;4.45;100.00;92393.56;2105056;28;20032;-86
2021/12/24 02:37:13;;;;;;;4.50;2.70;;;;;;;4.44;100.00;92387.53;2103868;28;20099;-85
2021/12/24 02:38:19;;;;;;;3.83;2.40;;;;;;;4.40;100.00;92394.00;2108578;27;20024;-86
2021/12/24 02:39:20;;;;;;;4.93;2.53;;;;;;;4.36;100.00;92391.41;2122273;27;20015;-87
2021/12/24 02:40:26;;;;;;;5.35;2.50;;;;;;;4.33;100.00;92389.53;2129302;27;20117;-85
2021/12/24 02:41:30;;;;;;;4.05;2.33;;;;;;;4.43;100.00;92390.56;2113732;27;20031;-84
2021/12/24 02:42:35;;;;;;;5.03;2.30;;;;;;;4.29;100.00;92384.28;2120865;27;20068;-86
2021/12/24 02:43:37;;;;;;;2.40;2.20;;;;;;;4.43;100.00;92379.97;2113240;27;20099;-85
2021/12/24 02:44:38;;;;;;;4.93;2.63;;;;;;;4.37;100.00;92382.31;2112097;27;20047;-86
2021/12/24 02:45:42;;;;;;;2.50;2.22;;;;;;;4.35;100.00;92381.22;2108449;28;20052;-85
2021/12/24 02:47:07;;;;;;;2.42;2.22;;;;;;;4.40;100.00;92383.44;2105205;28;20024;-87
2021/12/24 02:53:53;;;;;;;4.22;2.35;;;;;;;4.33;100.00;92378.19;2128075;27;20126;-85
2021/12/24 02:54:43;;;;;;;4.13;2.40;;;;;;;4.60;100.00;92381.69;2133486;27;20511;-86
2021/12/24 02:55:49;;;;;;;2.67;2.33;;;;;;;4.63;100.00;92380.91;2121319;27;20019;-87
2021/12/24 02:56:54;;;;;;;4.05;2.70;;;;;;;4.76;100.00;92379.22;2131190;27;20026;-87
2021/12/24 02:57:56;;;;;;;4.03;2.13;;;;;;;4.73;100.00;92374.72;2129595;27;20019;-85
2021/12/24 02:59:00;;;;;;;2.40;2.20;;;;;;;4.57;100.00;92371.91;2122780;27;20726;-86
2021/12/24 03:00:06;;;;;;;4.35;2.33;;;;;;;4.98;100.00;92366.47;2113161;28;20496;-84
2021/12/24 03:01:10;;;;;;;2.45;2.20;;;;;;;4.80;100.00;92361.41;2117803;27;20035;-85
2021/12/24 03:02:11;;;;;;;2.60;1.98;;;;;;;4.88;100.00;92369.28;2113041;28;20403;-85
2021/12/24 03:03:12;;;;;;;3.42;2.35;;;;;;;4.79;100.00;92356.53;2113120;27;20032;-85
2021/12/24 03:04:13;;;;;;;4.65;2.33;;;;;;;4.73;100.00;92356.19;2115220;27;20111;-86
2021/12/24 03:05:17;;;;;;;5.60;2.25;;;;;;;4.66;100.00;92358.94;2112814;28;20028;-85
2021/12/24 03:06:22;;;;;;;3.25;2.55;;;;;;;4.79;100.00;92353.88;2105104;28;20062;-87
2021/12/24 03:07:23;;;;;;;3.03;2.33;;;;;;;4.80;100.00;92356.13;2101263;28;20041;-86
2021/12/24 03:08:24;;;;;;;3.05;2.13;;;;;;;4.74;100.00;92349.78;2106141;28;20030;-85
2021/12/24 03:09:26;;;;;;;3.60;2.60;;;;;;;4.62;100.00;92357.47;2112492;28;20043;-86
2021/12/24 03:10:27;;;;;;;3.92;2.30;;;;;;;4.62;100.00;92354.84;2104413;28;20103;-85
2021/12/24 03:11:28;;;;;;;2.88;2.10;;;;;;;4.60;100.00;92349.91;2095861;28;20028;-85
2021/12/24 03:12:35;;;;;;;4.10;2.20;;;;;;;4.55;100.00;92345.06;2095884;28;20103;-88
2021/12/24 03:13:37;;;;;;;3.13;2.30;;;;;;;4.57;100.00;92340.16;2104951;28;20769;-85
2021/12/24 03:14:38;;;;;;;2.38;2.17;;;;;;;4.53;100.00;92336.78;2096171;28;20028;-86
2021/12/24 03:15:40;;;;;;;7.78;2.63;;;;;;;4.48;100.00;92345.91;2096072;28;20387;-87
2021/12/24 03:16:51;;;;;;;2.63;1.92;;;;;;;4.64;100.00;92344.59;2096199;28;20060;-84
2021/12/24 03:17:56;;;;;;;4.78;2.22;;;;;;;4.46;100.00;92329.66;2106151;28;20027;-87
2021/12/24 03:18:57;;;;;;;4.43;2.30;;;;;;;4.35;100.00;92339.63;2103763;28;20408;-86
2021/12/24 03:20:05;;;;;;;2.65;2.10;;;;;;;4.31;100.00;92336.28;2104352;28;20020;-85
2021/12/24 03:21:17;;;;;;;4.05;1.98;;;;;;;4.21;100.00;92339.78;2100709;28;20757;-85
2021/12/24 03:23:44;;;;;;;2.15;1.98;;;;;;;4.03;100.00;92335.41;2117083;27;20023;-87
2021/12/24 03:24:44;;;;;;;2.47;2.08;;;;;;;3.94;100.00;92337.03;2115224;28;20020;-86
2021/12/24 03:25:45;;;;;;;2.05;1.83;;;;;;;3.93;100.00;92338.91;2107044;28;20027;-86
2021/12/24 03:26:47;;;;;;;2.28;2.00;;;;;;;3.89;100.00;92354.06;2090206;28;20047;-87
2021/12/24 03:27:48;;;;;;;2.00;1.80;;;;;;;3.83;100.00;92342.41;2099764;28;20059;-85
2021/12/24 03:28:49;;;;;;;2.30;1.95;;;;;;;3.78;100.00;92338.31;2103956;28;20027;-86
2021/12/24 03:29:58;;;;;;;3.55;2.30;;;;;;;3.77;100.00;92338.69;2098419;28;20059;-85
2021/12/24 03:31:03;;;;;;;2.20;2.00;;;;;;;3.80;100.00;92337.91;2102921;28;20464;-84
2021/12/24 03:32:05;;;;;;;6.25;2.05;;;;;;;3.67;100.00;92340.28;2108190;27;20031;-86
2021/12/24 03:33:07;;;;;;;3.47;2.38;;;;;;;3.85;100.00;92326.16;2115225;28;20026;-86
2021/12/24 03:34:11;;;;;;;4.47;2.55;;;;;;;3.88;100.00;92335.97;2098872;28;20028;-85
2021/12/24 03:35:12;;;;;;;3.30;1.75;;;;;;;3.97;100.00;92330.97;2107404;28;20488;-86
2021/12/24 03:36:18;;;;;;;2.47;2.03;;;;;;;3.92;100.00;92326.09;2106964;28;20055;-85
2021/12/24 03:37:19;;;;;;;2.53;2.00;;;;;;;3.86;100.00;92331.03;2099066;28;20020;-85
2021/12/24 03:38:22;;;;;;;3.80;2.00;;;;;;;3.88;100.00;92322.75;2090391;28;20036;-86
2021/12/24 03:39:23;;;;;;;3.22;2.03;;;;;;;3.91;100.00;92324.59;2098944;28;20023;-86
2021/12/24 03:40:24;;;;;;;4.32;2.33;;;;;;;3.91;100.00;92324.59;2098453;28;20485;-86
2021/12/24 03:41:26;;;;;;;2.22;2.03;;;;;;;3.93;100.00;92325.69;2090379;28;20021;-84
2021/12/24 03:42:27;;;;;;;4.40;2.13;;;;;;;3.92;100.00;92321.56;2098695;28;20032;-88
2021/12/24 03:43:30;;;;;;;2.80;2.22;;;;;;;4.02;100.00;92314.66;2098412;28;20027;-86
2021/12/24 03:44:41;;;;;;;3.78;2.30;;;;;;;4.11;100.00;92320.22;2098825;28;20409;-85
2021/12/24 03:45:55;;;;;;;2.33;1.77;;;;;;;4.09;100.00;92319.13;2100079;28;20028;-85
2021/12/24 03:47:07;;;;;;;3.40;2.10;;;;;;;4.16;100.00;92325.09;2093847;28;20025;-85
2021/12/24 03:48:17;;;;;;;2.33;2.13;;;;;;;4.29;100.00;92322.69;2101544;28;20020;-87
2021/12/24 03:49:34;;;;;;;3.38;2.20;;;;;;;4.43;100.00;92314.56;2108063;28;20024;-86
2021/12/24 03:50:53;;;;;;;3.03;2.10;;;;;;;4.56;100.00;92314.81;2100509;28;20030;-85
2021/12/24 03:52:15;;;;;;;2.47;2.10;;;;;;;4.67;100.00;92309.41;2103556;28;20102;-86
2021/12/24 03:55:55;;;;;;;2.30;2.00;;;;;;;4.86;100.00;92300.06;2115310;28;20031;-87
2021/12/24 03:56:56;;;;;;;3.60;2.10;;;;;;;5.21;100.00;92296.16;2098194;28;20564;-86
2021/12/24 03:57:58;;;;;;;4.15;2.40;;;;;;;5.01;100.00;92288.88;2090145;28;20069;-85
2021/12/24 03:58:59;;;;;;;3.03;2.10;;;;;;;4.74;100.00;92301.34;2105256;28;20435;-87
2021/12/24 04:00:21;;;;;;;3.22;2.15;;;;;;;4.87;100.00;92294.38;2101132;28;20032;-86
2021/12/24 04:01:24;;;;;;;4.55;2.35;;;;;;;4.70;100.00;92296.13;2106497;28;20038;-85
2021/12/24 04:02:28;;;;;;;3.17;2.10;;;;;;;4.89;100.00;92307.97;2106987;28;20028;-87
2021/12/24 04:03:29;;;;;;;2.75;1.77;;;;;;;4.85;100.00;92280.03;2098832;28;20025;-84
2021/12/24 04:04:32;;;;;;;3.38;2.38;;;;;;;4.72;100.00;92299.09;2098381;28;20062;-85
2021/12/24 04:05:35;;;;;;;4.07;2.05;;;;;;;4.62;100.00;92291.31;2090418;28;20505;-85
2021/12/24 04:06:36;;;;;;;4.30;2.20;;;;;;;4.66;100.00;92294.66;2114341;27;20045;-86
2021/12/24 04:07:43;;;;;;;2.22;2.03;;;;;;;4.88;100.00;92293.22;2098434;28;20052;-85
2021/12/24 04:08:45;;;;;;;2.22;1.95;;;;;;;4.82;100.00;92297.47;2099846;28;20057;-87
2021/12/24 04:10:13;;;;;;;2.97;2.00;;;;;;;4.76;100.00;92288.47;2098677;28;20032;-86
2021/12/24 04:11:13;;;;;;;2.63;2.20;;;;;;;4.61;100.00;92293.22;2113160;27;20532;-84
2021/12/24 04:12:15;;;;;;;3.00;1.92;;;;;;;4.45;100.00;92288.50;2107009;28;20028;-87
2021/12/24 04:13:19;;;;;;;3.83;1.88;;;;;;;4.48;100.00;92297.53;2106942;28;20046;-87
2021/12/24 04:14:20;;;;;;;2.05;1.80;;;;;;;4.37;100.00;92297.66;2099257;28;20027;-86
2021/12/24 04:15:22;;;;;;;3.63;2.33;;;;;;;4.32;100.00;92295.44;2106627;28;20047;-85
2021/12/24 04:16:23;;;;;;;2.00;1.80;;;;;;;4.28;100.00;92292.84;2098541;28;20623;-86
2021/12/24 04:17:24;;;;;;;3.90;2.22;;;;;;;4.27;100.00;92298.53;2098306;28;20029;-84
2021/12/24 04:24:50;;;;;;;3.25;1.92;;;;;;;4.09;100.00;92300.63;2099215;28;20473;-87
2021/12/24 04:25:11;;;;;;;2.20;1.88;;;;;;;3.87;100.00;92302.75;2113105;27;20024;-87
2021/12/24 04:26:12;;;;;;;2.25;1.88;;;;;;;3.81;100.00;92302.41;2106481;28;20566;-88
2021/12/24 04:27:13;;;;;;;2.55;2.17;;;;;;;3.82;100.00;92301.28;2106499;28;20054;-85
2021/12/24 04:28:14;;;;;;;2.60;2.40;;;;;;;3.78;100.00;92306.59;2106438;28;20047;-87
2021/12/24 04:29:15;;;;;;;2.83;2.08;;;;;;;3.75;100.00;92307.38;2098261;28;20025;-86
2021/12/24 04:30:22;;;;;;;4.72;2.50;;;;;;;3.77;100.00;92307.72;2098286;28;20032;-87
2021/12/24 04:31:30;;;;;;;7.32;2.30;;;;;;;3.92;100.00;92304.94;2105311;28;20031;-84
2021/12/24 04:33:47;;;;;;;3.75;2.72;;;;;;;3.73;100.00;92304.38;2101890;28;20028;-86
2021/12/24 04:34:50;;;;;;;2.35;2.10;;;;;;;3.90;100.00;92304.59;2098208;28;20021;-85
2021/12/24 04:51:24;;;;;;;6.25;3.83;;;;;;;3.02;100.00;92305.66;2120327;27;20111;-86
2021/12/24 05:01:14;;;;;;;5.72;3.67;;;;;;;3.02;100.00;92305.66;2106826;28;20032;-86
2021/12/24 05:01:26;;;;;;;4.35;3.40;;;;;;;2.96;100.00;92288.00;2108741;28;20548;-85
2021/12/24 05:03:35;;;;;;;5.22;3.70;;;;;;;2.93;100.00;92302.72;2106226;28;20020;-88
2021/12/24 05:04:46;;;;;;;6.55;3.70;;;;;;;2.91;100.00;92298.97;2107103;28;20058;-85
2021/12/24 05:05:51;;;;;;;7.38;3.10;;;;;;;2.89;100.00;92291.44;2101649;28;20029;-84
2021/12/24 05:07:02;;;;;;;5.90;3.45;;;;;;;2.93;100.00;92301.97;2107914;27;20508;-88
2021/12/24 05:08:16;;;;;;;3.83;3.00;;;;;;;3.03;100.00;92296.63;2108837;27;20063;-86
2021/12/24 05:09:22;;;;;;;6.13;3.28;;;;;;;3.19;100.00;92298.03;2109780;27;20051;-86
2021/12/24 05:10:29;;;;;;;3.10;2.80;;;;;;;3.33;100.00;92300.53;2115470;27;20424;-86
2021/12/24 05:11:30;;;;;;;4.78;3.17;;;;;;;3.27;100.00;92302.88;2107780;28;20032;-86
2021/12/24 05:12:34;;;;;;;4.10;2.88;;;;;;;3.22;100.00;92299.91;2099028;28;20047;-87
2021/12/24 05:13:35;;;;;;;3.78;2.83;;;;;;;3.23;100.00;92298.75;2098674;28;20031;-87
2021/12/24 05:14:36;;;;;;;4.88;3.65;;;;;;;3.36;100.00;92291.09;2098597;28;20047;-85
2021/12/24 05:15:43;;;;;;;3.92;3.08;;;;;;;3.30;100.00;92296.06;2097917;28;20552;-87
2021/12/24 05:16:51;;;;;;;2.72;2.53;;;;;;;3.41;100.00;92291.44;2091519;28;20032;-86
2021/12/24 05:21:55;;;;;;;4.15;1.90;;;;;;;3.74;100.00;92281.34;2108584;28;20027;-86
2021/12/24 05:22:56;;;;;;;3.08;2.25;;;;;;;3.74;100.00;92283.97;2106006;28;20392;-86
2021/12/24 05:23:57;;;;;;;2.65;2.38;;;;;;;3.90;100.00;92286.06;2105997;28;20024;-88
2021/12/24 05:24:58;;;;;;;4.47;2.25;;;;;;;3.86;100.00;92283.47;2097614;28;20048;-84
2021/12/24 05:26:01;;;;;;;3.85;2.80;;;;;;;3.77;100.00;92283.94;2091584;28;20032;-85
2021/12/24 05:27:03;;;;;;;2.63;2.22;;;;;;;4.01;100.00;92292.00;2106074;28;20380;-85
2021/12/24 05:28:05;;;;;;;2.00;1.90;;;;;;;4.08;100.00;92288.53;2105038;28;20500;-86
2021/12/24 05:29:06;;;;;;;4.40;2.45;;;;;;;4.00;100.00;92293.91;2097801;28;20421;-85
2021/12/24 05:30:10;;;;;;;4.75;2.58;;;;;;;3.96;100.00;92298.47;2097617;28;20027;-86
2021/12/24 05:31:12;;;;;;;3.88;2.20;;;;;;;4.08;100.00;92291.19;2109924;28;20028;-87
2021/12/24 05:32:13;;;;;;;2.72;2.53;;;;;;;4.18;100.00;92291.06;2114147;28;20105;-85
2021/12/24 05:33:16;;;;;;;3.08;2.30;;;;;;;4.20;100.00;92286.13;2097404;28;20106;-85
2021/12/24 05:34:18;;;;;;;2.40;2.10;;;;;;;4.13;100.00;92288.88;2089783;28;20025;-86
2021/12/24 05:35:19;;;;;;;3.30;2.25;;;;;;;4.11;100.00;92293.03;2089556;28;20021;-88
2021/12/24 05:36:20;;;;;;;3.58;3.15;;;;;;;4.04;100.00;92288.59;2094520;28;20021;-86
2021/12/24 05:37:21;;;;;;;3.67;2.88;;;;;;;4.06;100.00;92298.75;2105591;28;20608;-85
2021/12/24 05:38:22;;;;;;;8.95;5.10;;;;;;;4.01;100.00;92286.72;2097302;28;20478;-84
2021/12/24 05:39:23;;;;;;;9.27;5.88;;;;;;;3.98;100.00;92282.97;2114206;28;20054;-85
2021/12/24 05:40:24;;;;;;;8.95;6.47;;;;;;;4.03;100.00;92290.47;2122682;27;20023;-86
2021/12/24 05:41:25;;;;;;;4.53;3.70;;;;;;;3.97;100.00;92296.59;2114217;28;20575;-86
2021/12/24 05:42:31;;;;;;;3.35;2.30;;;;;;;4.12;100.00;92299.81;2105741;28;20028;-83
2021/12/24 05:43:32;;;;;;;4.53;3.00;;;;;;;4.16;100.00;92296.00;2105975;28;20034;-84
2021/12/24 05:44:33;;;;;;;3.65;2.58;;;;;;;4.22;100.00;92294.44;2105578;28;20495;-87
2021/12/24 05:45:35;;;;;;;3.83;2.78;;;;;;;4.19;100.00;92297.84;2094427;28;20037;-85
2021/12/24 05:46:37;;;;;;;11.80;10.43;;;;;;;4.43;100.00;92290.75;2089332;28;20024;-82
2021/12/24 05:47:38;;;;;;;7.88;6.80;;;;;;;4.41;100.00;92290.44;2093013;28;20028;-88
2021/12/24 05:48:39;;;;;;;5.22;4.72;;;;;;;4.41;100.00;92285.13;2109512;28;20055;-85
2021/12/24 05:49:41;;;;;;;4.25;3.85;;;;;;;4.44;100.00;92280.97;2097514;28;20409;-88
2021/12/24 05:50:42;;;;;;;3.47;2.95;;;;;;;4.35;100.00;92281.44;2106102;28;20118;-91
2021/12/24 05:51:44;;;;;;;2.80;2.50;;;;;;;4.31;100.00;92291.31;2097544;28;20066;-87
2021/12/24 05:52:45;;;;;;;3.88;2.17;;;;;;;4.27;100.00;92286.06;2097824;28;20025;-88
2021/12/24 05:53:46;;;;;;;3.10;2.40;;;;;;;4.44;100.00;92302.88;2097738;28;20532;-86
2021/12/24 05:54:47;;;;;;;2.60;2.40;;;;;;;4.42;100.00;92289.28;2106382;28;20027;-86
2021/12/24 05:55:48;;;;;;;2.80;2.40;;;;;;;4.34;100.00;92285.22;2106076;28;20031;-88
2021/12/24 05:56:49;;;;;;;2.65;2.45;;;;;;;4.36;100.00;92284.84;2105963;28;20062;-86
2021/12/24 05:57:50;;;;;;;2.35;2.15;;;;;;;4.37;100.00;92284.41;2114344;28;20024;-88
2021/12/24 05:58:51;;;;;;;3.80;2.47;;;;;;;4.58;100.00;92287.97;2122633;27;20015;-86
2021/12/24 05:59:52;;;;;;;2.92;2.35;;;;;;;4.69;100.00;92284.00;2105999;28;20123;-85
2021/12/24 06:00:53;;;;;;;4.85;2.95;;;;;;;4.62;100.00;92283.38;2097654;28;20024;-85
2021/12/24 06:01:54;;;;;;;3.50;2.47;;;;;;;4.57;100.00;92281.19;2097593;28;20490;-85
2021/12/24 06:02:55;;;;;;;3.08;2.42;;;;;;;4.68;100.00;92276.47;2105942;28;20077;-88
2021/12/24 06:03:56;;;;;;;2.40;2.20;;;;;;;4.68;100.00;92284.41;2105801;28;20058;-85
2021/12/24 06:04:57;;;;;;;3.58;2.30;;;;;;;4.97;100.00;92280.25;2097561;28;20027;-87
2021/12/24 06:05:58;;;;;;;2.47;2.28;;;;;;;4.85;100.00;92285.34;2097646;28;20111;-87
2021/12/24 06:06:59;;;;;;;4.00;2.10;;;;;;;5.08;100.00;92287.28;2097495;28;20048;-86
2021/12/24 06:08:01;;;;;;;3.45;2.50;;;;;;;4.90;100.00;92282.97;2097608;28;20036;-92
2021/12/24 06:09:03;;;;;;;3.28;2.70;;;;;;;4.91;100.00;92292.41;2105879;28;20126;-89
2021/12/24 06:10:05;;;;;;;5.07;2.30;;;;;;;5.12;100.00;92283.41;2097775;28;20135;-87
2021/12/24 06:11:06;;;;;;;3.13;2.83;;;;;;;5.00;100.00;92287.41;2089712;28;20021;-88
2021/12/24 06:12:08;;;;;;;3.28;2.97;;;;;;;4.96;100.00;92280.63;2097717;28;20032;-89
2021/12/24 06:13:09;;;;;;;3.80;2.60;;;;;;;4.83;100.00;92284.97;2097605;28;20028;-86
2021/12/24 06:14:12;;;;;;;3.60;2.97;;;;;;;4.92;100.00;92285.25;2089440;28;20803;-85
2021/12/24 06:15:16;;;;;;;2.63;2.42;;;;;;;5.07;100.00;92297.13;2089891;28;20099;-87
2021/12/24 06:16:19;;;;;;;6.10;3.78;;;;;;;5.15;100.00;92285.28;2090160;28;20027;-88
2021/12/24 06:17:30;;;;;;;6.72;2.85;;;;;;;5.16;100.00;92283.38;2099762;28;20020;-85
2021/12/24 06:18:31;;;;;;;4.80;3.20;;;;;;;5.17;100.00;92282.22;2107147;28;20032;-89
2021/12/24 06:19:34;;;;;;;3.25;2.80;;;;;;;5.10;100.00;92274.41;2113995;28;20157;-86
2021/12/24 06:20:37;;;;;;;4.15;3.30;;;;;;;5.21;100.00;92275.72;2114650;28;20490;-87
2021/12/24 06:21:38;;;;;;;4.07;3.03;;;;;;;5.20;100.00;92284.06;2106024;28;20098;-89
2021/12/24 06:22:39;;;;;;;4.85;3.78;;;;;;;5.36;100.00;92292.16;2114359;28;20026;-87
2021/12/24 06:23:41;;;;;;;4.10;2.88;;;;;;;5.14;100.00;92285.69;2105801;28;20028;-88
2021/12/24 06:24:42;;;;;;;4.28;3.22;;;;;;;5.07;100.00;92285.78;2097724;28;20024;-87
2021/12/24 06:25:43;;;;;;;5.72;2.90;;;;;;;5.07;100.00;92283.88;2114136;28;20023;-84
2021/12/24 06:26:44;;;;;;;6.57;2.88;;;;;;;4.90;100.00;92279.59;2096692;28;20028;-85
2021/12/24 06:27:46;;;;;;;3.80;2.67;;;;;;;5.16;100.00;92280.72;2100055;28;20078;-85
2021/12/24 06:28:47;;;;;;;2.78;2.58;;;;;;;5.17;100.00;92275.00;2092980;28;20032;-87
2021/12/24 06:29:48;;;;;;;4.43;2.88;;;;;;;5.13;100.00;92284.16;2094619;28;20020;-86
2021/12/24 06:30:50;;;;;;;3.38;3.08;;;;;;;5.01;100.00;92275.66;2099796;28;20085;-85
2021/12/24 06:31:51;;;;;;;4.32;2.63;;;;;;;4.90;100.00;92287.53;2096538;28;20020;-86
2021/12/24 06:32:52;;;;;;;4.65;3.00;;;;;;;4.89;100.00;92278.84;2104962;28;20020;-85
2021/12/24 06:33:53;;;;;;;3.50;3.15;;;;;;;4.88;100.00;92282.66;2100614;28;20036;-87
2021/12/24 06:34:54;;;;;;;3.38;3.08;;;;;;;5.07;100.00;92283.88;2096772;28;20059;-85